createdAt,value
2022-08-12T12:32:29.380Z,30.10
2022-08-12T12:38:04.740Z,30.00
2022-08-12T12:43:00.518Z,30.10
2022-08-12T12:48:09.843Z,30.00
2022-08-12T12:54:06.263Z,30.10
2022-08-12T12:58:40.075Z,30.00
2022-08-12T13:03:49.107Z,30.00
2022-08-12T13:08:53.520Z,30.20
2022-08-12T13:14:06.990Z,30.10
2022-08-12T13:19:16.657Z,30.20
2022-08-12T13:24:31.699Z,30.10
2022-08-12T15:33:45.102Z,30.40
2022-08-12T15:38:50.686Z,30.60
2022-08-12T15:44:37.137Z,30.60
2022-08-12T15:49:20.189Z,30.40
2022-08-12T15:54:33.886Z,30.40
2022-08-12T15:59:51.595Z,30.50
2022-08-12T16:05:02.640Z,30.50
2022-08-12T16:10:30.781Z,30.40
2022-08-12T16:15:37.840Z,30.40
2022-08-12T16:20:46.793Z,30.50
2022-08-12T16:26:05.420Z,30.30
2022-08-12T16:31:22.664Z,30.40
2022-08-12T16:36:26.666Z,30.40
2022-08-12T16:41:39.559Z,30.40
2022-08-12T16:46:57.564Z,30.30
2022-08-12T16:52:01.236Z,30.30
2022-08-12T16:57:09.508Z,30.30
2022-08-12T17:02:13.472Z,30.20
2022-08-12T17:07:38.240Z,30.20
2022-08-12T17:12:47.894Z,30.20
2022-08-12T17:17:51.434Z,30.20
2022-08-12T17:23:17.285Z,30.20
2022-08-12T17:28:22.830Z,30.10
2022-08-12T17:33:26.418Z,30.10
2022-08-12T17:38:30.950Z,30.10
2022-08-12T17:43:57.425Z,30.10
2022-08-12T17:49:00.422Z,30.00
2022-08-12T17:54:11.345Z,29.90
2022-08-12T17:59:47.264Z,29.90
2022-08-12T18:05:05.050Z,29.80
2022-08-12T18:10:08.959Z,29.70
2022-08-12T18:15:26.481Z,29.70
2022-08-12T18:20:44.874Z,29.60
2022-08-12T18:26:15.969Z,29.50
2022-08-12T18:31:44.012Z,29.40
2022-08-12T18:36:55.596Z,29.20
2022-08-12T18:42:00.458Z,29.20
2022-08-12T18:47:10.538Z,29.10
2022-08-12T18:52:17.870Z,29.00
2022-08-12T18:58:07.736Z,28.90
2022-08-12T19:02:52.005Z,28.90
2022-08-12T19:08:01.569Z,28.70
2022-08-12T19:13:25.119Z,28.60
2022-08-12T19:18:34.632Z,28.50
2022-08-12T19:23:41.745Z,28.40
2022-08-12T19:28:47.991Z,28.30
2022-08-12T19:34:25.493Z,28.20
2022-08-12T19:39:23.158Z,28.10
2022-08-12T19:44:38.006Z,28.00
2022-08-12T19:49:53.265Z,27.90
2022-08-12T19:54:59.109Z,27.60
2022-08-12T20:00:04.915Z,27.50
2022-08-12T20:06:03.649Z,27.40
2022-08-12T20:10:37.153Z,27.40
2022-08-12T20:15:44.906Z,27.30
2022-08-12T20:20:50.606Z,27.10
2022-08-12T20:26:08.876Z,27.00
2022-08-12T20:31:14.700Z,27.00
2022-08-12T20:36:41.222Z,26.90
2022-08-12T20:41:45.329Z,26.80
2022-08-12T20:46:58.270Z,26.70
2022-08-12T20:52:03.348Z,26.60
2022-08-12T20:57:09.981Z,26.40
2022-08-12T21:02:14.599Z,26.30
2022-08-12T21:07:20.385Z,26.20
2022-08-12T21:12:34.403Z,26.10
2022-08-12T21:18:08.018Z,26.10
2022-08-12T21:23:06.018Z,25.90
2022-08-12T21:28:09.629Z,25.70
2022-08-12T21:33:14.635Z,25.60
2022-08-12T21:38:21.712Z,25.70
2022-08-12T21:43:27.833Z,25.70
2022-08-12T21:48:48.266Z,25.70
2022-08-12T21:54:06.258Z,25.60
2022-08-12T21:59:13.639Z,25.50
2022-08-12T22:04:36.551Z,25.70
2022-08-12T22:09:43.456Z,25.70
2022-08-12T22:14:47.205Z,25.70
2022-08-12T22:19:50.664Z,25.50
2022-08-12T22:24:58.589Z,25.50
2022-08-12T22:30:19.758Z,25.40
2022-08-12T22:35:55.728Z,25.40
2022-08-12T22:41:00.543Z,25.20
2022-08-12T22:46:22.322Z,25.20
2022-08-12T22:51:57.802Z,25.20
2022-08-12T22:56:56.283Z,25.00
2022-08-12T23:02:01.748Z,25.00
2022-08-12T23:07:07.318Z,25.00
2022-08-12T23:12:22.481Z,24.90
2022-08-12T23:22:55.999Z,24.80
2022-08-12T23:28:30.109Z,24.70
2022-08-12T23:34:00.722Z,24.80
2022-08-12T23:44:07.118Z,24.50
2022-08-12T23:49:55.286Z,24.30
2022-08-12T23:54:44.179Z,24.40
2022-08-12T23:59:55.517Z,24.50
